createdAt,value
2023-07-29T00:01:43.606Z,64.91
2023-07-29T00:04:10.600Z,64.80
2023-07-29T00:06:37.825Z,64.86
2023-07-29T00:09:04.832Z,65.00
2023-07-29T00:11:33.723Z,64.88
2023-07-29T00:14:03.375Z,65.01
2023-07-29T00:16:30.124Z,65.03
2023-07-29T00:18:56.788Z,64.84
2023-07-29T00:21:23.578Z,64.97
2023-07-29T00:23:50.316Z,64.90
2023-07-29T00:26:17.061Z,65.28
2023-07-29T00:28:43.920Z,64.92
2023-07-29T00:31:10.628Z,65.09
2023-07-29T00:33:37.233Z,64.89
2023-07-29T00:36:04.169Z,64.73
2023-07-29T00:38:30.924Z,64.70
2023-07-29T00:41:03.257Z,64.63
2023-07-29T00:43:30.627Z,64.52
2023-07-29T00:45:58.792Z,64.68
2023-07-29T00:48:26.780Z,64.66
2023-07-29T00:50:54.228Z,64.76
2023-07-29T00:53:21.085Z,64.71
2023-07-29T00:55:47.827Z,64.55
2023-07-29T00:58:15.755Z,64.32
2023-07-29T01:00:42.888Z,64.53
2023-07-29T01:03:09.690Z,64.67
2023-07-29T01:06:14.013Z,64.58
2023-07-29T01:08:46.518Z,64.54
2023-07-29T01:11:24.478Z,64.75
2023-07-29T01:14:06.939Z,64.62
2023-07-29T01:16:42.978Z,64.59
2023-07-29T01:19:21.929Z,64.63
2023-07-29T01:21:48.902Z,64.55
2023-07-29T01:24:15.526Z,64.63
2023-07-29T01:26:42.242Z,64.80
2023-07-29T01:29:08.972Z,64.89
2023-07-29T01:31:42.222Z,65.04
2023-07-29T01:34:16.761Z,65.49
2023-07-29T01:36:47.907Z,65.80
2023-07-29T01:39:17.494Z,65.99
2023-07-29T01:41:46.717Z,65.55
2023-07-29T01:44:14.399Z,65.72
2023-07-29T01:46:41.801Z,65.75
2023-07-29T01:49:08.667Z,65.54
2023-07-29T01:51:35.404Z,65.60
2023-07-29T01:54:02.243Z,65.41
2023-07-29T01:56:29.073Z,65.52
2023-07-29T01:58:55.829Z,65.23
2023-07-29T02:01:22.914Z,64.94
2023-07-29T02:03:55.957Z,65.35
2023-07-29T02:06:23.003Z,65.02
2023-07-29T02:08:49.665Z,65.11
2023-07-29T02:11:16.341Z,65.08
2023-07-29T02:13:43.130Z,65.20
2023-07-29T02:16:09.962Z,65.12
2023-07-29T02:18:36.567Z,64.84
2023-07-29T02:21:03.259Z,65.22
2023-07-29T02:23:30.591Z,65.17
2023-07-29T02:25:57.216Z,65.27
2023-07-29T02:28:23.960Z,65.35
2023-07-29T02:31:12.010Z,65.22
2023-07-29T02:33:39.261Z,65.13
2023-07-29T02:36:06.304Z,64.96
2023-07-29T02:38:32.971Z,64.85
2023-07-29T02:40:59.809Z,64.85
2023-07-29T02:43:26.504Z,64.86
2023-07-29T02:45:53.116Z,65.05
2023-07-29T02:48:19.898Z,64.92
2023-07-29T02:50:46.700Z,64.99
2023-07-29T02:53:13.405Z,64.94
2023-07-29T02:55:43.002Z,64.77
2023-07-29T02:58:09.736Z,65.22
2023-07-29T03:00:36.792Z,65.42
2023-07-29T03:03:03.821Z,65.64
2023-07-29T03:05:30.796Z,65.54
2023-07-29T03:07:59.175Z,65.92
2023-07-29T03:10:26.367Z,65.82
2023-07-29T03:12:56.453Z,65.51
2023-07-29T03:15:27.159Z,65.69
2023-07-29T03:17:54.176Z,65.48
2023-07-29T03:20:21.497Z,65.09
2023-07-29T03:22:48.363Z,65.53
2023-07-29T03:25:15.157Z,65.61
2023-07-29T03:27:42.291Z,65.54
2023-07-29T03:30:09.306Z,65.61
2023-07-29T03:32:36.063Z,65.57
2023-07-29T03:35:03.210Z,65.63
2023-07-29T03:37:29.905Z,65.70
2023-07-29T03:39:56.601Z,65.67
2023-07-29T03:42:23.490Z,66.12
2023-07-29T03:44:50.134Z,66.43
2023-07-29T03:47:16.762Z,66.91
2023-07-29T03:49:43.510Z,66.79
2023-07-29T03:52:10.364Z,66.73
2023-07-29T03:54:37.162Z,66.48
2023-07-29T03:57:04.082Z,66.62
2023-07-29T03:59:30.766Z,66.60
2023-07-29T04:01:57.684Z,66.48
2023-07-29T04:04:24.966Z,66.33
2023-07-29T04:06:51.779Z,66.23
2023-07-29T04:09:19.041Z,66.10
2023-07-29T04:11:45.742Z,66.23
2023-07-29T04:14:12.400Z,66.40
2023-07-29T04:16:39.398Z,66.49
2023-07-29T04:19:06.339Z,66.34
2023-07-29T04:21:33.113Z,66.00
2023-07-29T04:23:59.928Z,65.93
2023-07-29T04:26:26.577Z,66.29
2023-07-29T04:28:53.500Z,66.03
2023-07-29T04:31:20.282Z,66.30
2023-07-29T04:33:46.987Z,66.50
2023-07-29T04:36:13.771Z,66.42
2023-07-29T04:38:40.671Z,67.01
2023-07-29T04:41:08.687Z,67.13
2023-07-29T04:43:35.572Z,67.49
2023-07-29T04:46:02.261Z,67.27
2023-07-29T04:48:28.992Z,67.11
2023-07-29T04:50:55.698Z,67.59
2023-07-29T04:53:22.493Z,67.84
2023-07-29T04:55:49.204Z,68.02
2023-07-29T04:58:15.867Z,68.37
2023-07-29T05:00:42.885Z,68.20
2023-07-29T05:03:09.728Z,68.72
2023-07-29T05:05:36.475Z,68.50
2023-07-29T05:08:03.580Z,68.36
2023-07-29T05:10:30.308Z,68.34
2023-07-29T05:12:57.230Z,68.25
2023-07-29T05:15:23.918Z,67.92
2023-07-29T05:17:50.607Z,68.53
2023-07-29T05:20:17.293Z,68.28
2023-07-29T05:22:44.123Z,68.61
2023-07-29T05:25:10.751Z,68.93
2023-07-29T05:27:37.660Z,68.94
2023-07-29T05:30:05.107Z,68.80
2023-07-29T05:32:31.835Z,69.08
2023-07-29T05:34:58.606Z,69.14
2023-07-29T05:37:25.368Z,69.23
2023-07-29T05:39:52.453Z,69.14
2023-07-29T05:42:19.098Z,69.27
2023-07-29T05:44:46.522Z,69.55
2023-07-29T05:47:13.556Z,69.58
2023-07-29T05:49:40.211Z,69.98
2023-07-29T05:52:07.256Z,70.09
2023-07-29T05:54:34.318Z,69.87
2023-07-29T05:57:00.987Z,69.78
2023-07-29T05:59:30.285Z,69.51
2023-07-29T06:01:57.465Z,69.95
2023-07-29T06:04:24.273Z,70.05
2023-07-29T06:06:51.234Z,69.96
2023-07-29T06:09:17.994Z,69.88
2023-07-29T06:11:45.122Z,70.41
2023-07-29T06:14:11.745Z,70.26
2023-07-29T06:16:38.732Z,70.36
2023-07-29T06:19:05.641Z,70.49
2023-07-29T06:21:32.561Z,70.53
2023-07-29T06:23:59.160Z,70.54
2023-07-29T06:26:25.999Z,70.82
2023-07-29T06:28:52.715Z,71.11
2023-07-29T06:31:19.403Z,71.65
2023-07-29T06:33:46.284Z,71.21
2023-07-29T06:36:13.214Z,70.95
2023-07-29T06:38:39.900Z,70.59
2023-07-29T06:41:06.735Z,70.63
2023-07-29T06:43:33.382Z,70.96
2023-07-29T06:46:00.497Z,71.26
2023-07-29T06:48:27.188Z,71.58
2023-07-29T06:50:53.918Z,71.64
2023-07-29T06:53:20.683Z,72.15
2023-07-29T06:55:47.650Z,71.59
2023-07-29T06:58:14.332Z,71.89
2023-07-29T07:00:41.183Z,71.32
2023-07-29T07:03:08.043Z,71.39
2023-07-29T07:05:34.927Z,71.68
2023-07-29T07:08:01.631Z,71.23
2023-07-29T07:10:28.353Z,71.40
2023-07-29T07:12:55.002Z,71.39
2023-07-29T07:15:21.638Z,71.03
2023-07-29T07:17:48.535Z,71.24
2023-07-29T07:20:15.291Z,71.18
2023-07-29T07:22:41.959Z,71.00
2023-07-29T07:25:09.173Z,71.00
2023-07-29T07:27:37.848Z,71.29
2023-07-29T07:30:05.063Z,71.33
2023-07-29T07:32:31.854Z,71.34
2023-07-29T07:34:58.541Z,71.25
2023-07-29T07:37:25.389Z,70.86
2023-07-29T07:39:52.058Z,70.85
2023-07-29T07:42:19.154Z,70.72
2023-07-29T07:44:45.922Z,70.68
2023-07-29T07:47:12.727Z,71.01
2023-07-29T07:49:39.385Z,70.79
2023-07-29T07:52:06.707Z,71.15
2023-07-29T07:54:33.464Z,70.86
2023-07-29T07:57:00.121Z,70.94
2023-07-29T07:59:26.799Z,70.72
2023-07-29T08:01:53.671Z,71.34
2023-07-29T08:04:20.554Z,70.88
2023-07-29T08:06:47.404Z,71.55
2023-07-29T08:09:14.210Z,71.36
2023-07-29T08:11:40.915Z,72.00
2023-07-29T08:14:07.589Z,71.98
2023-07-29T08:16:34.468Z,71.87
2023-07-29T08:19:01.213Z,72.45
2023-07-29T08:21:28.436Z,72.00
2023-07-29T08:23:55.116Z,71.99
2023-07-29T08:26:22.372Z,71.78
2023-07-29T08:28:49.725Z,71.67
2023-07-29T08:31:16.519Z,71.58
2023-07-29T08:33:43.328Z,71.53
2023-07-29T08:36:10.206Z,71.42
2023-07-29T08:38:36.826Z,70.99
2023-07-29T08:41:06.474Z,70.94
2023-07-29T08:43:34.243Z,70.37
2023-07-29T08:46:02.270Z,70.29
2023-07-29T08:48:41.759Z,70.23
2023-07-29T08:51:10.642Z,69.63
2023-07-29T08:53:38.332Z,69.13
2023-07-29T08:56:06.477Z,68.51
2023-07-29T08:58:33.510Z,68.25
2023-07-29T09:01:01.437Z,68.07
2023-07-29T09:03:28.329Z,67.27
2023-07-29T09:05:56.711Z,66.53
2023-07-29T09:08:25.077Z,66.98
2023-07-29T09:10:51.813Z,66.83
2023-07-29T09:13:18.529Z,65.96
2023-07-29T09:15:45.305Z,65.46
2023-07-29T09:18:15.921Z,65.58
2023-07-29T09:20:42.943Z,64.72
2023-07-29T09:23:11.687Z,65.09
2023-07-29T09:25:40.565Z,65.08
2023-07-29T09:28:12.270Z,64.52
2023-07-29T09:30:40.852Z,64.63
2023-07-29T09:33:08.648Z,63.87
2023-07-29T09:35:37.031Z,62.97
2023-07-29T09:38:08.590Z,63.02
2023-07-29T09:40:42.158Z,63.32
2023-07-29T09:43:11.030Z,63.67
2023-07-29T09:45:38.668Z,63.30
2023-07-29T09:48:10.542Z,63.06
2023-07-29T09:50:37.984Z,63.18
2023-07-29T09:53:04.749Z,62.74
2023-07-29T09:55:34.709Z,63.00
2023-07-29T09:58:03.277Z,61.95
2023-07-29T10:00:30.975Z,62.49
2023-07-29T10:02:59.639Z,62.47
2023-07-29T10:05:30.806Z,61.97
2023-07-29T10:07:58.206Z,61.73
2023-07-29T10:10:25.617Z,62.42
2023-07-29T10:12:54.280Z,61.85
2023-07-29T10:15:21.885Z,60.05
2023-07-29T10:17:51.285Z,60.51
2023-07-29T10:20:18.406Z,60.37
2023-07-29T10:22:48.407Z,60.20
2023-07-29T10:25:25.770Z,59.43
2023-07-29T10:28:05.670Z,58.81
2023-07-29T10:30:33.129Z,59.41
2023-07-29T10:33:03.433Z,59.12
2023-07-29T10:35:30.843Z,59.78
2023-07-29T10:37:58.349Z,60.36
2023-07-29T10:40:25.169Z,60.28
2023-07-29T10:43:11.648Z,59.88
2023-07-29T10:45:43.303Z,59.92
2023-07-29T10:48:14.270Z,59.50
2023-07-29T10:50:41.010Z,59.26
2023-07-29T10:53:07.890Z,59.60
2023-07-29T10:55:38.024Z,59.38
2023-07-29T10:58:18.178Z,60.46
2023-07-29T11:00:46.679Z,59.83
2023-07-29T11:03:18.045Z,60.42
2023-07-29T11:05:47.511Z,60.43
2023-07-29T11:08:31.760Z,60.52
2023-07-29T11:11:03.761Z,60.77
2023-07-29T11:13:31.927Z,61.39
2023-07-29T11:16:01.052Z,61.66
2023-07-29T11:18:35.198Z,61.59
2023-07-29T11:21:04.512Z,59.18
2023-07-29T11:23:34.436Z,59.59
2023-07-29T11:26:01.662Z,60.01
2023-07-29T11:28:29.646Z,60.33
2023-07-29T11:30:57.746Z,60.75
2023-07-29T11:33:27.100Z,60.98
2023-07-29T11:35:54.316Z,61.38
2023-07-29T11:38:22.731Z,61.42
2023-07-29T11:41:07.024Z,62.08
2023-07-29T11:43:37.408Z,61.50
2023-07-29T11:46:04.653Z,61.27
2023-07-29T11:48:34.912Z,62.16
2023-07-29T11:51:03.508Z,61.58
2023-07-29T11:53:34.423Z,62.35
2023-07-29T11:56:02.784Z,62.60
2023-07-29T11:58:29.846Z,62.79
2023-07-29T12:00:57.148Z,63.36
2023-07-29T12:03:24.845Z,64.44
2023-07-29T12:05:51.844Z,65.18
2023-07-29T12:08:19.078Z,66.35
2023-07-29T12:10:46.004Z,64.91
2023-07-29T12:13:12.813Z,63.66
2023-07-29T12:15:40.842Z,60.53
2023-07-29T12:18:08.267Z,61.38
2023-07-29T12:20:35.584Z,62.93
2023-07-29T12:23:03.933Z,63.60
2023-07-29T12:25:31.195Z,63.60
2023-07-29T12:28:03.377Z,64.43
2023-07-29T12:30:30.037Z,64.89
2023-07-29T12:32:57.061Z,65.90
2023-07-29T12:35:23.981Z,66.65
2023-07-29T12:38:03.277Z,67.67
2023-07-29T12:40:30.332Z,68.62
2023-07-29T12:42:57.474Z,70.21
2023-07-29T12:57:51.474Z,71.02
2023-07-29T13:00:18.589Z,70.95
2023-07-29T13:02:45.399Z,70.77
2023-07-29T13:05:13.103Z,72.00
2023-07-29T13:07:43.832Z,71.97
2023-07-29T13:10:11.687Z,72.16
2023-07-29T13:12:38.732Z,72.06
2023-07-29T13:15:06.767Z,71.91
2023-07-29T13:17:34.308Z,71.28
2023-07-29T13:20:01.004Z,71.97
2023-07-29T13:22:27.923Z,71.61
2023-07-29T13:24:54.613Z,71.59
2023-07-29T13:27:22.783Z,71.34
2023-07-29T13:29:51.297Z,71.20
2023-07-29T13:32:17.945Z,71.12
2023-07-29T13:34:44.734Z,70.63
2023-07-29T13:37:11.457Z,70.48
2023-07-29T13:39:38.415Z,70.04
2023-07-29T13:42:05.283Z,69.97
2023-07-29T13:44:32.011Z,69.50
2023-07-29T13:46:58.842Z,69.41
2023-07-29T13:49:25.506Z,69.82
2023-07-29T13:51:52.163Z,70.33
2023-07-29T13:54:18.899Z,70.71
2023-07-29T13:56:45.586Z,71.11
2023-07-29T13:59:12.215Z,71.27
2023-07-29T14:01:38.927Z,70.76
2023-07-29T14:04:05.658Z,71.23
2023-07-29T14:06:45.069Z,71.47
2023-07-29T14:09:12.851Z,71.43
2023-07-29T14:11:39.659Z,72.02
2023-07-29T14:14:07.635Z,72.15
2023-07-29T14:16:34.661Z,72.32
2023-07-29T14:19:01.738Z,72.47
2023-07-29T14:21:28.435Z,72.32
2023-07-29T14:23:55.204Z,72.70
2023-07-29T14:26:22.077Z,72.53
2023-07-29T14:28:48.737Z,73.00
2023-07-29T14:31:15.657Z,72.96
2023-07-29T14:33:42.450Z,72.94
2023-07-29T14:36:09.380Z,73.14
2023-07-29T14:38:37.388Z,72.88
2023-07-29T14:41:05.515Z,72.96
2023-07-29T14:43:32.167Z,72.73
2023-07-29T14:45:59.334Z,72.89
2023-07-29T14:48:26.412Z,72.62
2023-07-29T14:50:53.177Z,72.15
2023-07-29T14:53:20.459Z,72.13
2023-07-29T14:55:47.347Z,72.07
2023-07-29T14:58:14.008Z,71.92
2023-07-29T15:00:41.113Z,72.06
2023-07-29T15:03:08.928Z,72.09
2023-07-29T15:05:36.062Z,71.84
2023-07-29T15:08:03.236Z,71.99
2023-07-29T15:10:30.546Z,72.11
2023-07-29T15:12:57.304Z,71.88
2023-07-29T15:15:25.037Z,71.74
2023-07-29T15:17:51.845Z,71.99
2023-07-29T15:20:18.888Z,72.22
2023-07-29T15:22:46.578Z,72.36
2023-07-29T15:25:13.374Z,72.24
2023-07-29T15:27:40.673Z,72.50
2023-07-29T15:30:08.338Z,72.40
2023-07-29T15:32:35.431Z,72.61
2023-07-29T15:35:02.534Z,72.37
2023-07-29T15:37:29.397Z,72.60
2023-07-29T15:39:56.463Z,72.78
2023-07-29T15:42:24.353Z,72.75
2023-07-29T15:44:51.375Z,72.95
2023-07-29T15:47:19.938Z,72.92
2023-07-29T15:49:47.370Z,73.00
2023-07-29T15:52:16.256Z,73.46
2023-07-29T15:54:44.125Z,73.12
2023-07-29T15:57:11.558Z,73.69
2023-07-29T15:59:38.803Z,73.80
2023-07-29T16:02:06.030Z,73.48
2023-07-29T16:04:32.799Z,74.03
2023-07-29T16:06:59.549Z,74.17
2023-07-29T16:09:27.654Z,73.93
2023-07-29T16:11:54.981Z,74.01
2023-07-29T16:14:22.287Z,74.09
2023-07-29T16:16:49.503Z,74.07
2023-07-29T16:19:25.711Z,74.33
2023-07-29T16:21:53.071Z,74.43
2023-07-29T16:24:20.452Z,74.23
2023-07-29T16:26:47.596Z,74.82
2023-07-29T16:29:14.601Z,74.87
2023-07-29T16:31:41.577Z,74.82
2023-07-29T16:34:08.366Z,74.94
2023-07-29T16:36:35.662Z,74.97
2023-07-29T16:39:02.579Z,75.29
2023-07-29T16:42:01.808Z,75.45
2023-07-29T16:44:16.068Z,75.33
2023-07-29T16:46:43.189Z,75.06
2023-07-29T16:49:18.637Z,75.55
2023-07-29T16:51:50.466Z,75.52
2023-07-29T16:54:19.279Z,75.21
2023-07-29T16:56:48.904Z,75.15
2023-07-29T16:59:16.099Z,75.70
2023-07-29T17:01:42.987Z,75.24
2023-07-29T17:04:09.925Z,75.26
2023-07-29T17:06:37.010Z,75.34
2023-07-29T17:09:04.259Z,75.26
2023-07-29T17:11:31.089Z,75.62
2023-07-29T17:13:58.099Z,75.49
2023-07-29T17:16:25.597Z,75.74
2023-07-29T17:18:52.376Z,75.44
2023-07-29T17:21:19.483Z,75.46
2023-07-29T17:23:46.188Z,75.28
2023-07-29T17:26:13.239Z,75.30
2023-07-29T17:28:40.001Z,75.33
2023-07-29T17:31:06.993Z,75.29
2023-07-29T17:33:33.862Z,75.30
2023-07-29T17:36:00.756Z,75.41
2023-07-29T17:38:27.447Z,75.30
2023-07-29T17:40:56.732Z,75.01
2023-07-29T17:43:24.187Z,75.13
2023-07-29T17:45:50.894Z,74.98
2023-07-29T17:48:17.830Z,74.40
2023-07-29T17:50:44.660Z,74.46
2023-07-29T17:53:11.348Z,74.47
2023-07-29T17:55:39.074Z,74.36
2023-07-29T17:58:08.876Z,74.17
2023-07-29T18:00:35.636Z,74.25
2023-07-29T18:03:02.539Z,74.22
2023-07-29T18:05:29.673Z,74.50
2023-07-29T18:07:56.360Z,74.17
2023-07-29T18:10:25.074Z,74.18
2023-07-29T18:12:52.006Z,74.40
2023-07-29T18:15:18.812Z,74.60
2023-07-29T18:17:45.570Z,74.57
2023-07-29T18:20:12.484Z,74.39
2023-07-29T18:22:39.168Z,74.45
2023-07-29T18:25:06.580Z,74.69
2023-07-29T18:27:33.358Z,74.60
2023-07-29T18:30:00.004Z,74.80
2023-07-29T18:32:26.677Z,74.59
2023-07-29T18:34:53.506Z,74.86
2023-07-29T18:37:20.317Z,74.50
2023-07-29T18:39:46.978Z,74.53
2023-07-29T18:42:14.363Z,74.63
2023-07-29T18:44:41.094Z,74.60
2023-07-29T18:47:09.245Z,74.45
2023-07-29T18:49:36.221Z,74.35
2023-07-29T18:52:02.879Z,74.22
2023-07-29T18:54:32.533Z,74.20
2023-07-29T18:56:59.209Z,74.25
2023-07-29T18:59:25.835Z,74.21
2023-07-29T19:01:52.807Z,74.13
2023-07-29T19:04:19.782Z,74.00
2023-07-29T19:06:46.610Z,73.92
2023-07-29T19:09:13.474Z,74.05
2023-07-29T19:11:40.244Z,74.13
2023-07-29T19:14:07.355Z,73.98
2023-07-29T19:16:34.267Z,74.34
2023-07-29T19:19:01.185Z,74.41
2023-07-29T19:21:27.851Z,74.41
2023-07-29T19:23:54.456Z,74.03
2023-07-29T19:26:24.060Z,74.22
2023-07-29T19:28:52.091Z,74.55
2023-07-29T19:31:19.117Z,74.63
2023-07-29T19:33:46.379Z,74.39
2023-07-29T19:36:13.865Z,74.71
2023-07-29T19:38:40.520Z,74.66
2023-07-29T19:41:07.536Z,74.63
2023-07-29T19:43:34.194Z,74.64
2023-07-29T19:48:34.053Z,74.77
2023-07-29T19:51:00.864Z,74.55
2023-07-29T19:53:28.075Z,74.48
2023-07-29T19:55:54.970Z,74.55
2023-07-29T19:58:21.736Z,74.53
2023-07-29T20:00:52.017Z,74.28
2023-07-29T20:03:19.619Z,73.93
2023-07-29T20:05:47.740Z,73.84
2023-07-29T20:08:14.812Z,73.94
2023-07-29T20:10:41.843Z,73.68
2023-07-29T20:13:08.688Z,73.62
2023-07-29T20:15:35.670Z,73.63
2023-07-29T20:18:02.427Z,73.74
2023-07-29T20:20:29.194Z,73.71
2023-07-29T20:22:56.026Z,73.63
2023-07-29T20:25:22.753Z,73.73
2023-07-29T20:27:49.620Z,73.44
2023-07-29T20:30:16.322Z,73.86
2023-07-29T20:32:43.068Z,73.39
2023-07-29T20:35:10.099Z,73.69
2023-07-29T20:37:36.796Z,74.08
2023-07-29T20:40:04.932Z,73.88
2023-07-29T20:42:31.659Z,74.00
2023-07-29T20:44:58.408Z,73.99
2023-07-29T20:47:25.497Z,74.42
2023-07-29T20:49:52.184Z,74.54
2023-07-29T20:52:18.913Z,74.77
2023-07-29T20:54:45.705Z,74.57
2023-07-29T20:57:12.547Z,74.80
2023-07-29T20:59:39.408Z,75.02
2023-07-29T21:02:06.327Z,74.85
2023-07-29T21:04:33.582Z,75.22
2023-07-29T21:07:01.225Z,75.40
2023-07-29T21:09:28.104Z,75.50
2023-07-29T21:11:58.159Z,75.54
2023-07-29T21:14:24.909Z,75.30
2023-07-29T21:16:51.943Z,75.47
2023-07-29T21:19:19.291Z,75.46
2023-07-29T21:21:47.690Z,75.38
2023-07-29T21:24:14.996Z,75.61
2023-07-29T21:26:41.801Z,75.42
2023-07-29T21:29:08.850Z,75.64
2023-07-29T21:31:36.479Z,75.19
2023-07-29T21:34:03.585Z,75.88
2023-07-29T21:36:30.210Z,75.78
2023-07-29T21:38:58.694Z,75.84
2023-07-29T21:41:25.877Z,75.96
2023-07-29T21:43:52.991Z,75.88
2023-07-29T21:46:19.901Z,75.92
2023-07-29T21:48:47.589Z,75.63
2023-07-29T21:51:14.556Z,75.50
2023-07-29T21:53:41.482Z,75.29
2023-07-29T21:56:08.405Z,75.36
2023-07-29T21:58:35.344Z,75.05
2023-07-29T22:01:03.037Z,75.00
2023-07-29T22:03:29.932Z,74.98
2023-07-29T22:06:03.441Z,74.89
2023-07-29T22:08:30.158Z,74.79
2023-07-29T22:11:05.530Z,74.94
2023-07-29T22:13:35.128Z,74.77
2023-07-29T22:16:05.397Z,74.81
2023-07-29T22:18:32.765Z,74.71
2023-07-29T22:21:00.992Z,75.17
2023-07-29T22:23:27.728Z,74.78
2023-07-29T22:25:59.594Z,74.77
2023-07-29T22:28:26.883Z,74.49
2023-07-29T22:30:54.272Z,74.48
2023-07-29T22:33:22.605Z,74.35
2023-07-29T22:35:49.564Z,74.35
2023-07-29T22:38:16.502Z,74.41
2023-07-29T22:40:43.489Z,74.43
2023-07-29T22:43:10.165Z,74.58
2023-07-29T22:45:37.072Z,74.77
2023-07-29T22:48:03.959Z,74.84
2023-07-29T22:50:30.797Z,74.97
2023-07-29T22:52:57.570Z,74.94
2023-07-29T22:55:24.888Z,74.88
2023-07-29T22:57:51.760Z,74.78
2023-07-29T23:00:18.450Z,74.44
2023-07-29T23:02:45.525Z,74.60
2023-07-29T23:05:12.459Z,74.71
2023-07-29T23:07:39.830Z,74.50
2023-07-29T23:10:08.915Z,74.64
2023-07-29T23:12:36.522Z,74.42
2023-07-29T23:15:03.679Z,74.61
2023-07-29T23:17:30.438Z,74.36
2023-07-29T23:19:57.227Z,74.56
2023-07-29T23:22:24.601Z,74.53
2023-07-29T23:24:51.508Z,74.42
2023-07-29T23:27:18.252Z,74.18
2023-07-29T23:29:44.954Z,74.22
2023-07-29T23:32:11.714Z,74.42
2023-07-29T23:34:38.496Z,74.43
2023-07-29T23:37:05.658Z,74.78
2023-07-29T23:39:32.477Z,74.74
2023-07-29T23:41:59.149Z,74.85
2023-07-29T23:44:25.835Z,75.00
2023-07-29T23:46:52.615Z,75.01
2023-07-29T23:49:19.285Z,75.33
2023-07-29T23:51:45.976Z,75.47
2023-07-29T23:54:12.653Z,75.60
2023-07-29T23:56:39.410Z,75.68
2023-07-29T23:59:06.363Z,75.58
